Time,TemperatureF,DewpointF,PressureIn,WindDirection,WindDirectionDegrees,WindSpeedMPH,WindSpeedGustMPH,Humidity,HourlyPrecipIn,Conditions,Clouds,dailyrainin,SoftwareType,DateUTC
2013-10-16 00:01:00,34.5,12.7,23.45,NE,46,0.0,0.0,40,0.00,,---,0.00,VWS V14.00,2013-10-16 07:01:00,
2013-10-16 00:06:00,34.2,12.4,23.45,NE,46,0.0,0.0,40,0.00,,---,0.00,VWS V14.00,2013-10-16 07:06:00,
2013-10-16 00:11:00,34.0,12.2,23.45,NE,46,0.0,0.0,40,0.00,,---,0.00,VWS V14.00,2013-10-16 07:11:00,
2013-10-16 00:16:00,33.8,12.1,23.45,NE,46,0.0,0.0,40,0.00,,---,0.00,VWS V14.00,2013-10-16 07:16:00,
2013-10-16 00:21:00,33.8,12.1,23.45,NE,46,0.0,0.0,40,0.00,,---,0.00,VWS V14.00,2013-10-16 07:21:00,
2013-10-16 00:26:00,33.6,12.4,23.45,NE,46,0.0,0.0,41,0.00,,---,0.00,VWS V14.00,2013-10-16 07:26:00,
2013-10-16 00:31:00,33.6,12.4,23.45,NE,46,0.0,0.0,41,0.00,,---,0.00,VWS V14.00,2013-10-16 07:31:00,
2013-10-16 00:36:00,33.4,12.3,23.45,NE,46,0.0,0.0,41,0.00,,---,0.00,VWS V14.00,2013-10-16 07:36:00,
2013-10-16 00:41:00,33.3,12.1,23.45,NE,46,0.0,0.0,41,0.00,,---,0.00,VWS V14.00,2013-10-16 07:41:00,
2013-10-16 00:46:00,33.3,12.1,23.45,NE,46,0.0,0.0,41,0.00,,---,0.00,VWS V14.00,2013-10-16 07:46:00,
2013-10-16 00:51:00,33.1,12.0,23.48,NE,46,0.0,0.0,41,0.00,,---,0.00,VWS V14.00,2013-10-16 07:51:00,
2013-10-16 00:56:00,32.7,11.6,23.48,NE,46,0.0,0.0,41,0.00,,---,0.00,VWS V14.00,2013-10-16 07:56:00,
2013-10-16 01:01:00,32.7,11.6,23.48,NE,46,0.0,0.0,41,0.00,,---,0.00,VWS V14.00,2013-10-16 08:01:00,
2013-10-16 01:06:00,32.5,11.5,23.48,NE,46,0.0,0.0,41,0.00,,---,0.00,VWS V14.00,2013-10-16 08:06:00,
2013-10-16 01:11:00,32.4,11.3,23.48,NE,46,0.0,0.0,41,0.00,,---,0.00,VWS V14.00,2013-10-16 08:11:00,
2013-10-16 01:16:00,32.2,11.1,23.48,NE,46,0.0,0.0,41,0.00,,---,0.00,VWS V14.00,2013-10-16 08:16:00,
2013-10-16 01:21:00,32.2,11.1,23.48,NE,46,0.0,0.0,41,0.00,,---,0.00,VWS V14.00,2013-10-16 08:21:00,
2013-10-16 01:26:00,32.0,11.0,23.48,NE,46,0.0,0.0,41,0.00,,---,0.00,VWS V14.00,2013-10-16 08:26:00,
2013-10-16 01:31:00,31.8,10.8,23.48,NE,41,0.0,0.0,41,0.00,,---,0.00,VWS V14.00,2013-10-16 08:31:00,
2013-10-16 01:37:00,31.8,10.8,23.48,NNW,343,0.0,0.0,41,0.00,,---,0.00,VWS V14.00,2013-10-16 08:37:00,
2013-10-16 01:42:00,31.8,10.8,23.48,NNW,343,0.0,0.0,41,0.00,,---,0.00,VWS V14.00,2013-10-16 08:42:00,
2013-10-16 01:47:00,31.6,10.6,23.48,NNW,340,0.0,0.0,41,0.00,,---,0.00,VWS V14.00,2013-10-16 08:47:00,
2013-10-16 01:52:00,31.8,10.8,23.48,SE,131,4.9,4.9,41,0.00,,---,0.00,VWS V14.00,2013-10-16 08:52:00,
2013-10-16 01:57:00,33.4,12.3,23.48,South,191,2.2,3.6,41,0.00,,---,0.00,VWS V14.00,2013-10-16 08:57:00,
2013-10-16 02:02:00,34.7,12.9,23.48,ESE,116,2.2,3.6,40,0.00,,---,0.00,VWS V14.00,2013-10-16 09:02:00,
2013-10-16 02:07:00,35.8,13.8,23.48,ENE,61,4.9,4.9,40,0.00,,---,0.00,VWS V14.00,2013-10-16 09:07:00,
2013-10-16 02:12:00,36.3,14.3,23.48,ESE,105,3.6,3.6,40,0.00,,---,0.00,VWS V14.00,2013-10-16 09:12:00,
2013-10-16 02:17:00,36.9,14.8,23.48,ENE,75,3.6,3.6,40,0.00,,---,0.00,VWS V14.00,2013-10-16 09:17:00,
2013-10-16 02:22:00,37.0,15.0,23.48,ESE,119,3.6,4.0,40,0.00,,---,0.00,VWS V14.00,2013-10-16 09:22:00,
2013-10-16 02:27:00,37.2,15.1,23.48,ESE,119,2.7,5.8,40,0.00,,---,0.00,VWS V14.00,2013-10-16 09:27:00,
2013-10-16 02:32:00,37.2,15.1,23.48,East,86,0.0,3.1,40,0.00,,---,0.00,VWS V14.00,2013-10-16 09:32:00,
2013-10-16 02:37:00,37.0,15.0,23.48,SE,137,3.1,5.8,40,0.00,,---,0.00,VWS V14.00,2013-10-16 09:37:00,
2013-10-16 02:42:00,37.0,15.0,23.48,East,98,4.0,5.4,40,0.00,,---,0.00,VWS V14.00,2013-10-16 09:42:00,
2013-10-16 02:47:00,37.0,15.0,23.48,ESE,118,4.0,5.4,40,0.00,,---,0.00,VWS V14.00,2013-10-16 09:47:00,
2013-10-16 02:52:00,37.0,15.0,23.48,NNE,28,3.1,3.6,40,0.00,,---,0.00,VWS V14.00,2013-10-16 09:52:00,
2013-10-16 02:57:00,37.0,15.0,23.48,SE,140,3.1,4.9,40,0.00,,---,0.00,VWS V14.00,2013-10-16 09:57:00,
2013-10-16 03:02:00,37.0,15.0,23.48,ESE,119,2.7,3.1,40,0.00,,---,0.00,VWS V14.00,2013-10-16 10:02:00,
2013-10-16 03:07:00,37.0,15.0,23.48,SE,136,6.3,6.3,40,0.00,,---,0.00,VWS V14.00,2013-10-16 10:07:00,
2013-10-16 03:12:00,36.9,14.8,23.48,ESE,105,3.1,3.1,40,0.00,,---,0.00,VWS V14.00,2013-10-16 10:12:00,
2013-10-16 03:17:00,36.9,14.8,23.48,ESE,115,2.7,2.7,40,0.00,,---,0.00,VWS V14.00,2013-10-16 10:17:00,
2013-10-16 03:22:00,36.9,14.8,23.48,East,96,2.7,3.1,40,0.00,,---,0.00,VWS V14.00,2013-10-16 10:22:00,
2013-10-16 03:27:00,36.9,14.8,23.48,ESE,103,3.6,3.6,40,0.00,,---,0.00,VWS V14.00,2013-10-16 10:27:00,
2013-10-16 03:32:00,36.9,14.8,23.48,ESE,121,3.1,4.9,40,0.00,,---,0.00,VWS V14.00,2013-10-16 10:32:00,
2013-10-16 03:38:00,36.9,14.8,23.48,ESE,113,4.0,5.4,40,0.00,,---,0.00,VWS V14.00,2013-10-16 10:38:00,
2013-10-16 03:43:00,36.9,14.8,23.48,ESE,113,2.2,3.1,40,0.00,,---,0.00,VWS V14.00,2013-10-16 10:43:00,
2013-10-16 03:48:00,36.9,14.8,23.48,SE,134,4.9,4.9,40,0.00,,---,0.00,VWS V14.00,2013-10-16 10:48:00,
2013-10-16 03:53:00,36.9,14.8,23.48,East,101,4.0,6.7,40,0.00,,---,0.00,VWS V14.00,2013-10-16 10:53:00,
2013-10-16 03:58:00,36.9,14.8,23.48,SE,128,5.4,5.4,40,0.00,,---,0.00,VWS V14.00,2013-10-16 10:58:00,
2013-10-16 04:03:00,36.9,14.8,23.48,East,100,2.7,2.7,40,0.00,,---,0.00,VWS V14.00,2013-10-16 11:03:00,
2013-10-16 04:08:00,36.9,14.8,23.48,East,98,0.0,0.0,40,0.00,,---,0.00,VWS V14.00,2013-10-16 11:08:00,
2013-10-16 04:13:00,36.9,14.8,23.48,ESE,111,3.1,5.4,40,0.00,,---,0.00,VWS V14.00,2013-10-16 11:13:00,
2013-10-16 04:18:00,36.7,14.6,23.48,East,92,3.1,3.1,40,0.00,,---,0.00,VWS V14.00,2013-10-16 11:18:00,
2013-10-16 04:23:00,36.7,14.6,23.48,SE,127,3.6,3.6,40,0.00,,---,0.00,VWS V14.00,2013-10-16 11:23:00,
2013-10-16 04:28:00,36.7,14.6,23.48,ESE,111,5.4,8.1,40,0.00,,---,0.00,VWS V14.00,2013-10-16 11:28:00,
2013-10-16 04:33:00,36.7,14.6,23.48,East,101,2.7,3.6,40,0.00,,---,0.00,VWS V14.00,2013-10-16 11:33:00,
2013-10-16 04:38:00,36.7,14.6,23.48,SE,135,2.2,2.7,40,0.00,,---,0.00,VWS V14.00,2013-10-16 11:38:00,
2013-10-16 04:43:00,36.7,14.6,23.48,SE,133,4.9,6.3,40,0.00,,---,0.00,VWS V14.00,2013-10-16 11:43:00,
2013-10-16 04:48:00,36.7,14.6,23.48,NNE,21,4.0,4.9,40,0.00,,---,0.00,VWS V14.00,2013-10-16 11:48:00,
2013-10-16 04:53:00,36.7,14.6,23.48,ESE,119,2.2,3.6,40,0.00,,---,0.00,VWS V14.00,2013-10-16 11:53:00,
2013-10-16 04:58:00,36.7,14.6,23.48,SE,129,2.7,4.9,40,0.00,,---,0.00,VWS V14.00,2013-10-16 11:58:00,
2013-10-16 05:03:00,36.5,14.5,23.48,NE,53,3.6,5.8,40,0.00,,---,0.00,VWS V14.00,2013-10-16 12:03:00,
2013-10-16 05:08:00,36.7,14.6,23.48,East,101,3.1,5.8,40,0.00,,---,0.00,VWS V14.00,2013-10-16 12:08:00,
2013-10-16 05:13:00,36.7,14.6,23.48,ESE,117,2.7,2.7,40,0.00,,---,0.00,VWS V14.00,2013-10-16 12:13:00,
2013-10-16 05:18:00,36.5,14.5,23.48,ESE,115,5.8,5.8,40,0.00,,---,0.00,VWS V14.00,2013-10-16 12:18:00,
2013-10-16 05:23:00,36.3,14.3,23.48,East,96,2.2,4.0,40,0.00,,---,0.00,VWS V14.00,2013-10-16 12:23:00,
2013-10-16 05:28:00,36.3,14.3,23.48,SE,138,2.7,3.6,40,0.00,,---,0.00,VWS V14.00,2013-10-16 12:28:00,
2013-10-16 05:33:00,36.1,14.2,23.51,ESE,107,4.0,4.0,40,0.00,,---,0.00,VWS V14.00,2013-10-16 12:33:00,
2013-10-16 05:38:00,36.1,14.2,23.51,SE,144,0.0,0.0,40,0.00,,---,0.00,VWS V14.00,2013-10-16 12:38:00,
2013-10-16 05:43:00,36.1,14.2,23.51,ESE,120,0.0,0.0,40,0.00,,---,0.00,VWS V14.00,2013-10-16 12:43:00,
2013-10-16 05:48:00,36.0,14.0,23.51,ESE,118,2.7,2.7,40,0.00,,---,0.00,VWS V14.00,2013-10-16 12:48:00,
2013-10-16 05:53:00,35.8,13.8,23.51,SE,129,2.2,2.2,40,0.00,,---,0.00,VWS V14.00,2013-10-16 12:53:00,
2013-10-16 05:58:00,35.6,13.7,23.51,SE,131,3.1,3.1,40,0.00,,---,0.00,VWS V14.00,2013-10-16 12:58:00,
2013-10-16 06:04:00,35.6,13.7,23.51,East,99,4.0,5.8,40,0.00,,---,0.00,VWS V14.00,2013-10-16 13:04:00,
2013-10-16 06:09:00,35.6,13.7,23.51,East,100,0.0,0.0,40,0.00,,---,0.00,VWS V14.00,2013-10-16 13:09:00,
2013-10-16 06:14:00,35.4,13.5,23.51,East,83,0.0,3.1,40,0.00,,---,0.00,VWS V14.00,2013-10-16 13:14:00,
2013-10-16 06:19:00,35.4,13.5,23.51,ESE,119,0.0,2.2,40,0.00,,---,0.00,VWS V14.00,2013-10-16 13:19:00,
2013-10-16 06:24:00,35.4,13.5,23.51,ESE,102,2.7,6.3,40,0.00,,---,0.00,VWS V14.00,2013-10-16 13:24:00,
2013-10-16 06:29:00,35.4,13.5,23.51,SE,133,4.9,4.9,40,0.00,,---,0.00,VWS V14.00,2013-10-16 13:29:00,
2013-10-16 06:34:00,35.6,13.7,23.51,East,92,4.9,4.9,40,0.00,,---,0.00,VWS V14.00,2013-10-16 13:34:00,
2013-10-16 06:39:00,35.4,13.5,23.51,East,85,2.2,3.1,40,0.00,,---,0.00,VWS V14.00,2013-10-16 13:39:00,
2013-10-16 06:44:00,35.4,13.5,23.51,ESE,106,6.3,6.3,40,0.00,,---,0.00,VWS V14.00,2013-10-16 13:44:00,
2013-10-16 06:49:00,35.2,13.4,23.51,SE,133,4.0,4.0,40,0.00,,---,0.00,VWS V14.00,2013-10-16 13:49:00,
2013-10-16 06:54:00,35.2,13.4,23.51,ESE,118,5.4,5.4,40,0.00,,---,0.00,VWS V14.00,2013-10-16 13:54:00,
2013-10-16 06:59:00,35.2,13.4,23.51,East,84,2.2,6.3,40,0.00,,---,0.00,VWS V14.00,2013-10-16 13:59:00,
2013-10-16 07:04:00,35.4,13.5,23.51,SE,124,4.9,6.7,40,0.00,,---,0.00,VWS V14.00,2013-10-16 14:04:00,
2013-10-16 07:09:00,35.6,13.7,23.51,ENE,68,4.0,4.0,40,0.00,,---,0.00,VWS V14.00,2013-10-16 14:09:00,
2013-10-16 07:14:00,35.8,13.8,23.51,SSE,157,0.0,0.0,40,0.00,,---,0.00,VWS V14.00,2013-10-16 14:14:00,
2013-10-16 07:19:00,36.0,14.0,23.51,ESE,121,3.1,3.1,40,0.00,,---,0.00,VWS V14.00,2013-10-16 14:19:00,
2013-10-16 07:24:00,36.3,14.3,23.51,SE,140,5.8,5.8,40,0.00,,---,0.00,VWS V14.00,2013-10-16 14:24:00,
2013-10-16 07:29:00,36.7,14.6,23.51,ESE,113,3.1,5.8,40,0.00,,---,0.00,VWS V14.00,2013-10-16 14:29:00,
2013-10-16 07:34:00,36.9,14.8,23.51,East,99,4.0,6.3,40,0.00,,---,0.00,VWS V14.00,2013-10-16 14:34:00,
2013-10-16 07:39:00,37.4,14.7,23.51,ESE,108,5.8,5.8,39,0.00,,---,0.00,VWS V14.00,2013-10-16 14:39:00,
2013-10-16 07:44:00,37.6,14.9,23.51,ESE,105,2.7,4.0,39,0.00,,---,0.00,VWS V14.00,2013-10-16 14:44:00,
2013-10-16 07:49:00,37.9,15.2,23.51,SE,140,5.4,5.4,39,0.00,,---,0.00,VWS V14.00,2013-10-16 14:49:00,
2013-10-16 07:55:00,38.5,15.7,23.51,ESE,109,3.1,3.6,39,0.00,,---,0.00,VWS V14.00,2013-10-16 14:55:00,
2013-10-16 08:00:00,38.7,15.9,23.51,ESE,109,4.9,7.6,39,0.00,,---,0.00,VWS V14.00,2013-10-16 15:00:00,
2013-10-16 08:05:00,39.0,16.2,23.54,ESE,113,2.7,3.6,39,0.00,,---,0.00,VWS V14.00,2013-10-16 15:05:00,
2013-10-16 08:10:00,39.2,16.3,23.54,South,179,5.4,6.3,39,0.00,,---,0.00,VWS V14.00,2013-10-16 15:10:00,
2013-10-16 08:15:00,39.6,16.7,23.54,SSE,150,3.1,6.3,39,0.00,,---,0.00,VWS V14.00,2013-10-16 15:15:00,
2013-10-16 08:20:00,39.9,17.0,23.54,North,0,5.4,8.1,39,0.00,,---,0.00,VWS V14.00,2013-10-16 15:20:00,
2013-10-16 08:25:00,40.1,17.1,23.54,East,89,6.3,7.6,39,0.00,,---,0.00,VWS V14.00,2013-10-16 15:25:00,
2013-10-16 08:30:00,40.3,17.3,23.54,ESE,121,3.6,8.1,39,0.00,,---,0.00,VWS V14.00,2013-10-16 15:30:00,
2013-10-16 08:35:00,40.6,17.6,23.54,ESE,109,3.6,4.9,39,0.00,,---,0.00,VWS V14.00,2013-10-16 15:35:00,
2013-10-16 08:40:00,41.0,18.0,23.54,ESE,120,5.8,6.3,39,0.00,,---,0.00,VWS V14.00,2013-10-16 15:40:00,
2013-10-16 08:45:00,41.2,18.1,23.54,SE,139,3.6,5.8,39,0.00,,---,0.00,VWS V14.00,2013-10-16 15:45:00,
2013-10-16 08:50:00,41.7,18.6,23.54,ESE,113,6.3,6.3,39,0.00,,---,0.00,VWS V14.00,2013-10-16 15:50:00,
2013-10-16 08:55:00,41.7,18.6,23.54,SSE,150,4.0,4.0,39,0.00,,---,0.00,VWS V14.00,2013-10-16 15:55:00,
2013-10-16 09:00:00,42.3,19.1,23.54,SE,144,3.6,4.0,39,0.00,,---,0.00,VWS V14.00,2013-10-16 16:00:00,
2013-10-16 09:05:00,42.6,19.4,23.54,SE,133,4.0,4.0,39,0.00,,---,0.00,VWS V14.00,2013-10-16 16:05:00,
2013-10-16 09:10:00,43.0,19.1,23.54,ESE,122,4.9,4.9,38,0.00,,---,0.00,VWS V14.00,2013-10-16 16:10:00,
2013-10-16 09:16:00,43.5,19.6,23.54,East,96,3.1,3.1,38,0.00,,---,0.00,VWS V14.00,2013-10-16 16:16:00,
2013-10-16 09:21:00,43.7,19.8,23.54,East,99,4.5,4.5,38,0.00,,---,0.00,VWS V14.00,2013-10-16 16:21:00,
2013-10-16 09:26:00,43.7,19.8,23.54,SE,142,3.1,3.6,38,0.00,,---,0.00,VWS V14.00,2013-10-16 16:26:00,
2013-10-16 09:31:00,44.4,20.4,23.54,SE,141,2.7,4.0,38,0.00,,---,0.00,VWS V14.00,2013-10-16 16:31:00,
2013-10-16 09:36:00,45.1,21.1,23.54,ESE,110,3.6,4.0,38,0.00,,---,0.00,VWS V14.00,2013-10-16 16:36:00,
2013-10-16 09:41:00,45.5,21.4,23.54,SE,142,3.6,5.4,38,0.00,,---,0.00,VWS V14.00,2013-10-16 16:41:00,
2013-10-16 09:46:00,46.4,21.6,23.54,SE,143,4.0,4.0,37,0.00,,---,0.00,VWS V14.00,2013-10-16 16:46:00,
2013-10-16 09:51:00,47.3,22.4,23.54,ESE,115,3.6,4.9,37,0.00,,---,0.00,VWS V14.00,2013-10-16 16:51:00,
2013-10-16 09:56:00,48.2,23.2,23.54,SE,128,5.4,5.4,37,0.00,,---,0.00,VWS V14.00,2013-10-16 16:56:00,
2013-10-16 10:01:00,48.7,23.6,23.54,ESE,106,3.1,3.1,37,0.00,,---,0.00,VWS V14.00,2013-10-16 17:01:00,
2013-10-16 10:06:00,48.9,23.8,23.54,SE,142,3.6,3.6,37,0.00,,---,0.00,VWS V14.00,2013-10-16 17:06:00,
2013-10-16 10:11:00,50.0,24.8,23.54,NE,36,2.2,3.6,37,0.00,,---,0.00,VWS V14.00,2013-10-16 17:11:00,
2013-10-16 10:16:00,50.4,25.1,23.54,ESE,105,2.2,4.0,37,0.00,,---,0.00,VWS V14.00,2013-10-16 17:16:00,
2013-10-16 10:21:00,51.1,25.7,23.54,SSE,156,4.9,5.4,37,0.00,,---,0.00,VWS V14.00,2013-10-16 17:21:00,
2013-10-16 10:26:00,52.3,26.2,23.54,ESE,120,3.1,3.1,36,0.00,,---,0.00,VWS V14.00,2013-10-16 17:26:00,
2013-10-16 10:31:00,52.9,26.7,23.54,East,95,4.0,4.0,36,0.00,,---,0.00,VWS V14.00,2013-10-16 17:31:00,
2013-10-16 10:36:00,52.7,26.5,23.54,SSE,153,4.0,4.0,36,0.00,,---,0.00,VWS V14.00,2013-10-16 17:36:00,
2013-10-16 10:41:00,53.2,27.0,23.54,East,95,5.8,5.8,36,0.00,,---,0.00,VWS V14.00,2013-10-16 17:41:00,
2013-10-16 10:46:00,53.1,26.8,23.54,NNE,19,3.6,4.9,36,0.00,,---,0.00,VWS V14.00,2013-10-16 17:46:00,
2013-10-16 10:51:00,52.7,26.5,23.54,East,88,3.1,3.1,36,0.00,,---,0.00,VWS V14.00,2013-10-16 17:51:00,
2013-10-16 10:56:00,53.8,27.5,23.54,ESE,107,2.7,3.1,36,0.00,,---,0.00,VWS V14.00,2013-10-16 17:56:00,
2013-10-16 11:02:00,54.5,28.1,23.54,SE,131,3.6,5.4,36,0.00,,---,0.00,VWS V14.00,2013-10-16 18:02:00,
2013-10-16 11:07:00,54.1,27.8,23.54,SE,129,2.7,7.6,36,0.00,,---,0.00,VWS V14.00,2013-10-16 18:07:00,
2013-10-16 11:12:00,54.3,28.0,23.54,SSE,147,4.9,4.9,36,0.00,,---,0.00,VWS V14.00,2013-10-16 18:12:00,
2013-10-16 11:17:00,56.3,29.0,23.54,ESE,112,0.0,3.6,35,0.00,,---,0.00,VWS V14.00,2013-10-16 18:17:00,
2013-10-16 11:22:00,57.6,30.1,23.54,ESE,102,3.6,3.6,35,0.00,,---,0.00,VWS V14.00,2013-10-16 18:22:00,
2013-10-16 11:27:00,58.5,30.9,23.54,NNE,18,3.1,3.1,35,0.00,,---,0.00,VWS V14.00,2013-10-16 18:27:00,
2013-10-16 11:32:00,57.0,29.7,23.54,NNE,16,3.1,3.1,35,0.00,,---,0.00,VWS V14.00,2013-10-16 18:32:00,
2013-10-16 11:37:00,56.8,29.5,23.54,SE,145,3.1,5.4,35,0.00,,---,0.00,VWS V14.00,2013-10-16 18:37:00,
2013-10-16 11:42:00,58.5,30.9,23.54,West,271,0.0,3.1,35,0.00,,---,0.00,VWS V14.00,2013-10-16 18:42:00,
2013-10-16 11:47:00,59.9,32.2,23.54,SE,132,4.0,4.0,35,0.00,,---,0.00,VWS V14.00,2013-10-16 18:47:00,
2013-10-16 11:52:00,59.7,32.0,23.54,ENE,74,3.1,7.2,35,0.00,,---,0.00,VWS V14.00,2013-10-16 18:52:00,
2013-10-16 11:58:00,60.1,32.4,23.54,SE,142,2.2,4.0,35,0.00,,---,0.00,VWS V14.00,2013-10-16 18:58:00,
2013-10-16 12:03:00,60.6,32.8,23.54,NNE,23,2.7,4.0,35,0.00,,---,0.00,VWS V14.00,2013-10-16 19:03:00,
2013-10-16 12:08:00,61.9,33.2,23.54,NNE,30,0.0,0.0,34,0.00,,---,0.00,VWS V14.00,2013-10-16 19:08:00,
2013-10-16 12:13:00,62.6,33.9,23.54,SSE,152,3.1,4.0,34,0.00,,---,0.00,VWS V14.00,2013-10-16 19:13:00,
2013-10-16 12:18:00,62.4,33.7,23.54,ENE,63,0.0,0.0,34,0.00,,---,0.00,VWS V14.00,2013-10-16 19:18:00,
2013-10-16 12:23:00,61.0,32.4,23.54,East,83,0.0,2.2,34,0.00,,---,0.00,VWS V14.00,2013-10-16 19:23:00,
2013-10-16 12:28:00,61.3,32.8,23.54,ENE,67,2.2,2.7,34,0.00,,---,0.00,VWS V14.00,2013-10-16 19:28:00,
2013-10-16 12:33:00,61.3,32.8,23.51,SE,133,3.1,4.0,34,0.00,,---,0.00,VWS V14.00,2013-10-16 19:33:00,
2013-10-16 12:38:00,60.8,32.3,23.51,East,100,2.7,3.6,34,0.00,,---,0.00,VWS V14.00,2013-10-16 19:38:00,
2013-10-16 12:43:00,59.7,32.0,23.51,ESE,110,2.2,4.0,35,0.00,,---,0.00,VWS V14.00,2013-10-16 19:43:00,
2013-10-16 12:48:00,60.4,32.7,23.51,NNW,327,5.8,5.8,35,0.00,,---,0.00,VWS V14.00,2013-10-16 19:48:00,
2013-10-16 12:53:00,61.3,32.8,23.51,West,277,2.2,2.7,34,0.00,,---,0.00,VWS V14.00,2013-10-16 19:53:00,
2013-10-16 12:58:00,61.9,33.2,23.51,NNW,331,2.7,5.8,34,0.00,,---,0.00,VWS V14.00,2013-10-16 19:58:00,
2013-10-16 13:03:00,61.0,32.4,23.51,NW,325,0.0,0.0,34,0.00,,---,0.00,VWS V14.00,2013-10-16 20:03:00,
2013-10-16 13:08:00,61.7,33.1,23.51,NE,46,2.7,2.7,34,0.00,,---,0.00,VWS V14.00,2013-10-16 20:08:00,
2013-10-16 13:13:00,60.6,32.8,23.51,SSW,203,0.0,3.1,35,0.00,,---,0.00,VWS V14.00,2013-10-16 20:13:00,
2013-10-16 13:18:00,60.3,32.5,23.51,SW,226,0.0,3.6,35,0.00,,---,0.00,VWS V14.00,2013-10-16 20:18:00,
2013-10-16 13:23:00,60.1,32.4,23.51,SSW,203,2.2,2.7,35,0.00,,---,0.00,VWS V14.00,2013-10-16 20:23:00,
2013-10-16 13:28:00,59.2,31.6,23.51,SE,127,2.2,3.6,35,0.00,,---,0.00,VWS V14.00,2013-10-16 20:28:00,
2013-10-16 13:33:00,57.9,30.5,23.51,ESE,103,4.9,4.9,35,0.00,,---,0.00,VWS V14.00,2013-10-16 20:33:00,
2013-10-16 13:39:00,56.7,29.3,23.51,East,95,2.7,3.6,35,0.00,,---,0.00,VWS V14.00,2013-10-16 20:39:00,
2013-10-16 13:44:00,56.8,29.5,23.51,WSW,249,2.2,2.2,35,0.00,,---,0.00,VWS V14.00,2013-10-16 20:44:00,
2013-10-16 13:49:00,57.0,29.7,23.51,NNE,22,3.6,4.9,35,0.00,,---,0.00,VWS V14.00,2013-10-16 20:49:00,
2013-10-16 13:54:00,57.0,29.7,23.51,NNW,338,2.7,4.0,35,0.00,,---,0.00,VWS V14.00,2013-10-16 20:54:00,
2013-10-16 13:59:00,57.2,29.8,23.51,North,357,2.7,2.7,35,0.00,,---,0.00,VWS V14.00,2013-10-16 20:59:00,
2013-10-16 14:04:00,56.7,29.3,23.51,SE,124,3.6,4.0,35,0.00,,---,0.00,VWS V14.00,2013-10-16 21:04:00,
2013-10-16 14:09:00,56.8,29.5,23.51,SSE,152,3.1,3.6,35,0.00,,---,0.00,VWS V14.00,2013-10-16 21:09:00,
2013-10-16 14:14:00,57.6,30.1,23.51,SW,224,3.1,3.1,35,0.00,,---,0.00,VWS V14.00,2013-10-16 21:14:00,
2013-10-16 14:19:00,57.7,30.3,23.51,North,0,0.0,3.1,35,0.00,,---,0.00,VWS V14.00,2013-10-16 21:19:00,
2013-10-16 14:24:00,57.7,30.3,23.51,North,0,0.0,0.0,35,0.00,,---,0.00,VWS V14.00,2013-10-16 21:24:00,
2013-10-16 14:29:00,58.1,30.6,23.51,SE,132,3.6,3.6,35,0.00,,---,0.00,VWS V14.00,2013-10-16 21:29:00,
2013-10-16 14:34:00,58.1,30.6,23.48,SW,235,2.2,3.6,35,0.00,,---,0.00,VWS V14.00,2013-10-16 21:34:00,
2013-10-16 14:39:00,58.5,30.9,23.48,SSW,206,2.7,3.6,35,0.00,,---,0.00,VWS V14.00,2013-10-16 21:39:00,
2013-10-16 14:44:00,58.6,31.1,23.48,NW,314,0.0,2.7,35,0.00,,---,0.00,VWS V14.00,2013-10-16 21:44:00,
2013-10-16 14:49:00,58.5,30.9,23.48,North,0,0.0,0.0,35,0.00,,---,0.00,VWS V14.00,2013-10-16 21:49:00,
2013-10-16 14:54:00,58.5,30.9,23.48,West,264,3.1,3.1,35,0.00,,---,0.00,VWS V14.00,2013-10-16 21:54:00,
2013-10-16 14:59:00,58.6,31.1,23.48,SSE,156,2.7,2.7,35,0.00,,---,0.00,VWS V14.00,2013-10-16 21:59:00,
2013-10-16 15:04:00,58.8,31.2,23.48,SW,223,4.0,4.0,35,0.00,,---,0.00,VWS V14.00,2013-10-16 22:04:00,
2013-10-16 15:09:00,58.8,31.2,23.48,NNW,330,0.0,2.7,35,0.00,,---,0.00,VWS V14.00,2013-10-16 22:09:00,
2013-10-16 15:14:00,59.0,31.4,23.48,WSW,239,0.0,2.2,35,0.00,,---,0.00,VWS V14.00,2013-10-16 22:14:00,
2013-10-16 17:03:00,54.9,28.4,23.51,SE,146,2.7,3.1,36,0.00,,---,0.00,VWS V14.00,2013-10-17 00:03:00,
2013-10-16 17:08:00,54.3,28.0,23.51,ESE,102,0.0,0.0,36,0.00,,---,0.00,VWS V14.00,2013-10-17 00:08:00,
2013-10-16 17:13:00,54.0,27.6,23.51,SE,137,2.7,2.7,36,0.00,,---,0.00,VWS V14.00,2013-10-17 00:13:00,
2013-10-16 17:18:00,53.4,27.1,23.51,SSE,149,2.7,3.1,36,0.00,,---,0.00,VWS V14.00,2013-10-17 00:18:00,
2013-10-16 17:23:00,52.9,26.7,23.51,SE,141,3.1,3.6,36,0.00,,---,0.00,VWS V14.00,2013-10-17 00:23:00,
2013-10-16 17:28:00,52.5,26.4,23.51,SE,131,3.1,3.1,36,0.00,,---,0.00,VWS V14.00,2013-10-17 00:28:00,
2013-10-16 17:33:00,52.0,25.9,23.51,East,98,3.1,3.1,36,0.00,,---,0.00,VWS V14.00,2013-10-17 00:33:00,
2013-10-16 17:38:00,51.4,26.0,23.51,SE,136,2.2,2.7,37,0.00,,---,0.00,VWS V14.00,2013-10-17 00:38:00,
2013-10-16 17:43:00,51.1,25.7,23.51,SE,140,3.1,4.0,37,0.00,,---,0.00,VWS V14.00,2013-10-17 00:43:00,
2013-10-16 17:48:00,50.5,25.2,23.51,SE,140,0.0,0.0,37,0.00,,---,0.00,VWS V14.00,2013-10-17 00:48:00,
2013-10-16 17:54:00,50.0,24.8,23.51,SE,140,0.0,0.0,37,0.00,,---,0.00,VWS V14.00,2013-10-17 00:54:00,
2013-10-16 17:59:00,49.5,24.3,23.51,SE,140,0.0,0.0,37,0.00,,---,0.00,VWS V14.00,2013-10-17 00:59:00,
2013-10-16 18:04:00,48.7,23.6,23.51,SE,140,0.0,0.0,37,0.00,,---,0.00,VWS V14.00,2013-10-17 01:04:00,
2013-10-16 18:09:00,48.2,23.2,23.51,SE,140,0.0,0.0,37,0.00,,---,0.00,VWS V14.00,2013-10-17 01:09:00,
2013-10-16 18:14:00,47.5,22.5,23.51,SE,140,0.0,0.0,37,0.00,,---,0.00,VWS V14.00,2013-10-17 01:14:00,
2013-10-16 18:19:00,46.9,22.0,23.51,SE,140,0.0,0.0,37,0.00,,---,0.00,VWS V14.00,2013-10-17 01:19:00,
2013-10-16 18:24:00,46.4,21.6,23.51,SE,140,0.0,0.0,37,0.00,,---,0.00,VWS V14.00,2013-10-17 01:24:00,
2013-10-16 18:29:00,45.9,21.7,23.51,SE,140,0.0,0.0,38,0.00,,---,0.00,VWS V14.00,2013-10-17 01:29:00,
2013-10-16 18:34:00,45.1,21.1,23.51,SE,140,0.0,0.0,38,0.00,,---,0.00,VWS V14.00,2013-10-17 01:34:00,
2013-10-16 18:39:00,44.6,20.6,23.51,SE,140,0.0,0.0,38,0.00,,---,0.00,VWS V14.00,2013-10-17 01:39:00,
2013-10-16 18:44:00,44.1,20.1,23.51,SE,140,0.0,0.0,38,0.00,,---,0.00,VWS V14.00,2013-10-17 01:44:00,
2013-10-16 18:49:00,43.5,19.6,23.51,SE,140,0.0,0.0,38,0.00,,---,0.00,VWS V14.00,2013-10-17 01:49:00,
2013-10-16 18:54:00,43.0,19.1,23.51,SE,140,0.0,0.0,38,0.00,,---,0.00,VWS V14.00,2013-10-17 01:54:00,
2013-10-16 18:59:00,42.4,19.2,23.51,SE,140,0.0,0.0,39,0.00,,---,0.00,VWS V14.00,2013-10-17 01:59:00,
2013-10-16 19:04:00,42.1,18.9,23.51,SE,140,0.0,0.0,39,0.00,,---,0.00,VWS V14.00,2013-10-17 02:04:00,
2013-10-16 19:09:00,41.5,18.4,23.51,SE,140,0.0,0.0,39,0.00,,---,0.00,VWS V14.00,2013-10-17 02:09:00,
2013-10-16 19:14:00,41.2,18.1,23.51,SE,140,0.0,0.0,39,0.00,,---,0.00,VWS V14.00,2013-10-17 02:14:00,
2013-10-16 19:19:00,40.8,17.8,23.51,SE,140,0.0,0.0,39,0.00,,---,0.00,VWS V14.00,2013-10-17 02:19:00,
2013-10-16 19:24:00,40.5,17.5,23.51,SE,140,0.0,0.0,39,0.00,,---,0.00,VWS V14.00,2013-10-17 02:24:00,
2013-10-16 19:29:00,39.9,17.0,23.51,SE,140,0.0,0.0,39,0.00,,---,0.00,VWS V14.00,2013-10-17 02:29:00,
2013-10-16 19:34:00,39.6,16.7,23.54,SE,140,0.0,0.0,39,0.00,,---,0.00,VWS V14.00,2013-10-17 02:34:00,
2013-10-16 19:39:00,39.2,16.3,23.54,SE,140,0.0,0.0,39,0.00,,---,0.00,VWS V14.00,2013-10-17 02:39:00,
2013-10-16 19:44:00,38.8,16.0,23.54,SE,140,0.0,0.0,39,0.00,,---,0.00,VWS V14.00,2013-10-17 02:44:00,
2013-10-16 19:49:00,38.5,15.7,23.54,SE,140,0.0,0.0,39,0.00,,---,0.00,VWS V14.00,2013-10-17 02:49:00,
2013-10-16 19:54:00,38.1,15.4,23.54,SE,140,0.0,0.0,39,0.00,,---,0.00,VWS V14.00,2013-10-17 02:54:00,
2013-10-16 20:00:00,37.9,15.2,23.54,SE,140,0.0,0.0,39,0.00,,---,0.00,VWS V14.00,2013-10-17 03:00:00,
2013-10-16 20:05:00,37.8,15.0,23.54,SE,140,0.0,0.0,39,0.00,,---,0.00,VWS V14.00,2013-10-17 03:05:00,
2013-10-16 20:10:00,37.4,14.7,23.54,SE,140,0.0,0.0,39,0.00,,---,0.00,VWS V14.00,2013-10-17 03:10:00,
2013-10-16 20:15:00,37.2,15.1,23.54,SE,140,0.0,0.0,40,0.00,,---,0.00,VWS V14.00,2013-10-17 03:15:00,
2013-10-16 20:20:00,36.9,14.8,23.54,SE,140,0.0,0.0,40,0.00,,---,0.00,VWS V14.00,2013-10-17 03:20:00,
2013-10-16 20:25:00,36.5,14.5,23.54,SE,140,0.0,0.0,40,0.00,,---,0.00,VWS V14.00,2013-10-17 03:25:00,
2013-10-16 20:30:00,36.1,14.2,23.54,SE,140,0.0,0.0,40,0.00,,---,0.00,VWS V14.00,2013-10-17 03:30:00,
2013-10-16 20:35:00,36.0,14.0,23.54,SE,140,0.0,0.0,40,0.00,,---,0.00,VWS V14.00,2013-10-17 03:35:00,
2013-10-16 20:40:00,35.6,13.7,23.54,SE,140,0.0,0.0,40,0.00,,---,0.00,VWS V14.00,2013-10-17 03:40:00,
2013-10-16 20:45:00,35.6,13.7,23.54,SE,140,0.0,0.0,40,0.00,,---,0.00,VWS V14.00,2013-10-17 03:45:00,
2013-10-16 20:50:00,35.4,13.5,23.54,SE,140,0.0,0.0,40,0.00,,---,0.00,VWS V14.00,2013-10-17 03:50:00,
2013-10-16 20:55:00,35.1,13.2,23.54,SE,140,0.0,0.0,40,0.00,,---,0.00,VWS V14.00,2013-10-17 03:55:00,
2013-10-16 21:00:00,34.9,13.0,23.54,SE,140,0.0,0.0,40,0.00,,---,0.00,VWS V14.00,2013-10-17 04:00:00,
2013-10-16 21:01:00,34.9,13.0,23.54,SE,140,0.0,0.0,40,0.00,,---,0.00,VWS V14.00,2013-10-17 04:01:00,
2013-10-16 21:02:00,34.9,13.0,23.54,SE,140,0.0,0.0,40,0.00,,---,0.00,VWS V14.00,2013-10-17 04:02:00,
2013-10-16 21:03:00,34.7,12.9,23.54,SE,140,0.0,0.0,40,0.00,,---,0.00,VWS V14.00,2013-10-17 04:03:00,
2013-10-16 21:05:00,34.7,12.9,23.54,SE,140,0.0,0.0,40,0.00,,---,0.00,VWS V14.00,2013-10-17 04:05:00,
2013-10-16 21:06:00,34.5,12.7,23.54,SE,140,0.0,0.0,40,0.00,,---,0.00,VWS V14.00,2013-10-17 04:06:00,
2013-10-16 21:11:00,34.3,12.5,23.54,SE,140,0.0,0.0,40,0.00,,---,0.00,VWS V14.00,2013-10-17 04:11:00,
2013-10-16 21:16:00,34.0,12.2,23.54,SE,140,0.0,0.0,40,0.00,,---,0.00,VWS V14.00,2013-10-17 04:16:00,
2013-10-16 21:21:00,33.8,12.1,23.54,SE,140,0.0,0.0,40,0.00,,---,0.00,VWS V14.00,2013-10-17 04:21:00,
2013-10-16 21:26:00,33.6,12.4,23.54,SE,140,0.0,0.0,41,0.00,,---,0.00,VWS V14.00,2013-10-17 04:26:00,
2013-10-16 21:31:00,33.3,12.1,23.54,SE,140,0.0,0.0,41,0.00,,---,0.00,VWS V14.00,2013-10-17 04:31:00,
2013-10-16 21:36:00,33.1,12.0,23.54,SE,140,0.0,0.0,41,0.00,,---,0.00,VWS V14.00,2013-10-17 04:36:00,
2013-10-16 21:41:00,32.9,11.8,23.54,SE,140,0.0,0.0,41,0.00,,---,0.00,VWS V14.00,2013-10-17 04:41:00,
2013-10-16 21:46:00,32.7,11.6,23.54,SE,140,0.0,0.0,41,0.00,,---,0.00,VWS V14.00,2013-10-17 04:46:00,
2013-10-16 21:51:00,32.5,11.5,23.54,SE,140,0.0,0.0,41,0.00,,---,0.00,VWS V14.00,2013-10-17 04:51:00,
2013-10-16 21:56:00,32.2,11.1,23.54,SE,140,0.0,0.0,41,0.00,,---,0.00,VWS V14.00,2013-10-17 04:56:00,
2013-10-16 22:02:00,32.0,11.0,23.54,SE,140,0.0,0.0,41,0.00,,---,0.00,VWS V14.00,2013-10-17 05:02:00,
2013-10-16 22:07:00,31.8,10.8,23.54,SE,140,0.0,0.0,41,0.00,,---,0.00,VWS V14.00,2013-10-17 05:07:00,
2013-10-16 22:12:00,31.6,10.6,23.54,SE,140,0.0,0.0,41,0.00,,---,0.00,VWS V14.00,2013-10-17 05:12:00,
2013-10-16 22:17:00,31.5,10.5,23.54,SE,140,0.0,0.0,41,0.00,,---,0.00,VWS V14.00,2013-10-17 05:17:00,
2013-10-16 22:22:00,31.3,10.3,23.54,SE,140,0.0,0.0,41,0.00,,---,0.00,VWS V14.00,2013-10-17 05:22:00,
2013-10-16 22:27:00,31.1,10.2,23.54,SE,140,0.0,0.0,41,0.00,,---,0.00,VWS V14.00,2013-10-17 05:27:00,
2013-10-16 22:32:00,31.1,10.2,23.54,SE,140,0.0,0.0,41,0.00,,---,0.00,VWS V14.00,2013-10-17 05:32:00,
2013-10-16 22:37:00,30.9,10.0,23.54,SE,140,0.0,0.0,41,0.00,,---,0.00,VWS V14.00,2013-10-17 05:37:00,
2013-10-16 22:42:00,30.9,10.0,23.54,SE,140,0.0,0.0,41,0.00,,---,0.00,VWS V14.00,2013-10-17 05:42:00,
2013-10-16 22:48:00,30.7,9.8,23.54,SE,140,0.0,0.0,41,0.00,,---,0.00,VWS V14.00,2013-10-17 05:48:00,
2013-10-16 22:53:00,30.4,9.5,23.54,SE,140,0.0,0.0,41,0.00,,---,0.00,VWS V14.00,2013-10-17 05:53:00,
2013-10-16 22:58:00,30.2,9.4,23.54,SE,140,0.0,0.0,41,0.00,,---,0.00,VWS V14.00,2013-10-17 05:58:00,
2013-10-16 23:03:00,30.4,9.5,23.54,SE,140,0.0,0.0,41,0.00,,---,0.00,VWS V14.00,2013-10-17 06:03:00,
2013-10-16 23:08:00,30.2,9.4,23.54,SE,140,0.0,0.0,41,0.00,,---,0.00,VWS V14.00,2013-10-17 06:08:00,
2013-10-16 23:13:00,30.0,9.2,23.54,SE,140,0.0,0.0,41,0.00,,---,0.00,VWS V14.00,2013-10-17 06:13:00,
2013-10-16 23:18:00,29.8,9.0,23.54,SE,140,0.0,0.0,41,0.00,,---,0.00,VWS V14.00,2013-10-17 06:18:00,
2013-10-16 23:23:00,29.7,8.9,23.54,SE,140,0.0,0.0,41,0.00,,---,0.00,VWS V14.00,2013-10-17 06:23:00,
2013-10-16 23:28:00,29.5,8.7,23.54,SE,140,0.0,0.0,41,0.00,,---,0.00,VWS V14.00,2013-10-17 06:28:00,
2013-10-16 23:33:00,29.5,8.7,23.54,SE,140,0.0,0.0,41,0.00,,---,0.00,VWS V14.00,2013-10-17 06:33:00,
2013-10-16 23:38:00,29.5,8.7,23.54,SE,140,0.0,0.0,41,0.00,,---,0.00,VWS V14.00,2013-10-17 06:38:00,
2013-10-16 23:43:00,29.3,8.5,23.54,SE,140,0.0,0.0,41,0.00,,---,0.00,VWS V14.00,2013-10-17 06:43:00,
2013-10-16 23:48:00,29.1,8.4,23.51,SE,140,0.0,0.0,41,0.00,,---,0.00,VWS V14.00,2013-10-17 06:48:00,
2013-10-16 23:53:00,29.1,8.4,23.51,SE,140,0.0,0.0,41,0.00,,---,0.00,VWS V14.00,2013-10-17 06:53:00,
2013-10-16 23:58:00,29.1,8.4,23.51,SE,140,0.0,0.0,41,0.00,,---,0.00,VWS V14.00,2013-10-17 06:58:00,